sensor_id;sensor_type;location;lat;lon;timestamp;pressure;altitude;pressure_sealevel;temperature;humidity
80509;BME280;69838;52.602;13.434;2023-07-29T00:00:18;100385.75;;;14.67;100.00
80509;BME280;69838;52.602;13.434;2023-07-29T00:01:04;100387.72;;;14.65;100.00
80509;BME280;69838;52.602;13.434;2023-07-29T00:01:50;100387.91;;;14.62;100.00
80509;BME280;69838;52.602;13.434;2023-07-29T00:02:36;100389.88;;;14.60;100.00
80509;BME280;69838;52.602;13.434;2023-07-29T00:03:21;100381.94;;;14.57;100.00
80509;BME280;69838;52.602;13.434;2023-07-29T00:04:07;100384.88;;;14.54;100.00
80509;BME280;69838;52.602;13.434;2023-07-29T00:04:53;100373.13;;;14.54;100.00
80509;BME280;69838;52.602;13.434;2023-07-29T00:05:40;100374.97;;;14.53;100.00
80509;BME280;69838;52.602;13.434;2023-07-29T00:06:26;100375.97;;;14.52;100.00
80509;BME280;69838;52.602;13.434;2023-07-29T00:07:12;100377.69;;;14.53;100.00
80509;BME280;69838;52.602;13.434;2023-07-29T00:07:57;100372.25;;;14.53;100.00
80509;BME280;69838;52.602;13.434;2023-07-29T00:08:42;100374.00;;;14.54;100.00
80509;BME280;69838;52.602;13.434;2023-07-29T00:09:27;100376.63;;;14.56;100.00
80509;BME280;69838;52.602;13.434;2023-07-29T00:10:13;100374.00;;;14.54;100.00
80509;BME280;69838;52.602;13.434;2023-07-29T00:10:58;100363.13;;;14.54;100.00
80509;BME280;69838;52.602;13.434;2023-07-29T00:11:43;100373.28;;;14.65;100.00
80509;BME280;69838;52.602;13.434;2023-07-29T00:12:28;100371.94;;;14.70;100.00
80509;BME280;69838;52.602;13.434;2023-07-29T00:13:14;100369.56;;;14.79;100.00
80509;BME280;69838;52.602;13.434;2023-07-29T00:14:00;100367.91;;;14.89;100.00
80509;BME280;69838;52.602;13.434;2023-07-29T00:14:46;100364.50;;;14.98;100.00
80509;BME280;69838;52.602;13.434;2023-07-29T00:15:31;100369.72;;;15.01;100.00
80509;BME280;69838;52.602;13.434;2023-07-29T00:16:17;100369.50;;;15.04;100.00
80509;BME280;69838;52.602;13.434;2023-07-29T00:17:02;100367.00;;;15.01;100.00
80509;BME280;69838;52.602;13.434;2023-07-29T00:17:47;100372.91;;;14.95;100.00
80509;BME280;69838;52.602;13.434;2023-07-29T00:18:33;100379.88;;;14.86;100.00
80509;BME280;69838;52.602;13.434;2023-07-29T00:19:18;100373.16;;;14.79;100.00
80509;BME280;69838;52.602;13.434;2023-07-29T00:20:06;100374.66;;;14.70;100.00
80509;BME280;69838;52.602;13.434;2023-07-29T00:20:51;100375.13;;;14.64;100.00
80509;BME280;69838;52.602;13.434;2023-07-29T00:21:36;100370.97;;;14.59;100.00
80509;BME280;69838;52.602;13.434;2023-07-29T00:22:22;100374.22;;;14.51;100.00
80509;BME280;69838;52.602;13.434;2023-07-29T00:23:07;100369.22;;;14.45;100.00
80509;BME280;69838;52.602;13.434;2023-07-29T00:23:53;100372.25;;;14.40;100.00
80509;BME280;69838;52.602;13.434;2023-07-29T00:24:39;100359.03;;;14.36;100.00
80509;BME280;69838;52.602;13.434;2023-07-29T00:25:25;100362.69;;;14.35;100.00
80509;BME280;69838;52.602;13.434;2023-07-29T00:26:10;100362.03;;;14.31;100.00
80509;BME280;69838;52.602;13.434;2023-07-29T00:26:55;100367.78;;;14.26;100.00
80509;BME280;69838;52.602;13.434;2023-07-29T00:27:42;100369.00;;;14.22;100.00
80509;BME280;69838;52.602;13.434;2023-07-29T00:28:27;100369.97;;;14.21;100.00
80509;BME280;69838;52.602;13.434;2023-07-29T00:29:12;100375.63;;;14.18;100.00
80509;BME280;69838;52.602;13.434;2023-07-29T00:29:58;100365.06;;;14.13;100.00
80509;BME280;69838;52.602;13.434;2023-07-29T00:30:43;100365.97;;;14.14;100.00
80509;BME280;69838;52.602;13.434;2023-07-29T00:31:28;100365.16;;;14.12;100.00
80509;BME280;69838;52.602;13.434;2023-07-29T00:32:14;100370.72;;;14.10;100.00
80509;BME280;69838;52.602;13.434;2023-07-29T00:32:59;100367.13;;;14.10;100.00
80509;BME280;69838;52.602;13.434;2023-07-29T00:33:44;100371.59;;;14.11;100.00
80509;BME280;69838;52.602;13.434;2023-07-29T00:34:29;100364.66;;;14.07;100.00
80509;BME280;69838;52.602;13.434;2023-07-29T00:35:15;100373.53;;;14.09;100.00
80509;BME280;69838;52.602;13.434;2023-07-29T00:36:01;100373.75;;;14.06;100.00
80509;BME280;69838;52.602;13.434;2023-07-29T00:36:47;100364.84;;;14.04;100.00
80509;BME280;69838;52.602;13.434;2023-07-29T00:37:33;100366.81;;;14.02;100.00
80509;BME280;69838;52.602;13.434;2023-07-29T00:38:18;100369.63;;;14.00;100.00
80509;BME280;69838;52.602;13.434;2023-07-29T00:39:03;100368.97;;;13.97;100.00
80509;BME280;69838;52.602;13.434;2023-07-29T00:39:49;100365.47;;;13.94;100.00
80509;BME280;69838;52.602;13.434;2023-07-29T00:40:35;100369.16;;;13.93;100.00
80509;BME280;69838;52.602;13.434;2023-07-29T00:41:21;100367.41;;;13.92;100.00
80509;BME280;69838;52.602;13.434;2023-07-29T00:42:06;100360.25;;;13.91;100.00
80509;BME280;69838;52.602;13.434;2023-07-29T00:42:52;100365.69;;;13.91;100.00
80509;BME280;69838;52.602;13.434;2023-07-29T00:43:37;100367.41;;;13.92;100.00
80509;BME280;69838;52.602;13.434;2023-07-29T00:44:22;100365.47;;;13.94;100.00
80509;BME280;69838;52.602;13.434;2023-07-29T00:45:09;100365.25;;;13.98;100.00
80509;BME280;69838;52.602;13.434;2023-07-29T00:45:54;100373.19;;;14.01;100.00
80509;BME280;69838;52.602;13.434;2023-07-29T00:46:40;100370.47;;;14.01;100.00
80509;BME280;69838;52.602;13.434;2023-07-29T00:47:26;100365.16;;;13.99;100.00
80509;BME280;69838;52.602;13.434;2023-07-29T00:48:11;100373.19;;;14.01;100.00
80509;BME280;69838;52.602;13.434;2023-07-29T00:48:57;100368.53;;;14.03;100.00
80509;BME280;69838;52.602;13.434;2023-07-29T00:49:45;100368.72;;;14.00;100.00
80509;BME280;69838;52.602;13.434;2023-07-29T00:50:31;100366.81;;;14.02;100.00
80509;BME280;69838;52.602;13.434;2023-07-29T00:51:17;100370.56;;;13.99;100.00
80509;BME280;69838;52.602;13.434;2023-07-29T00:52:02;100375.16;;;13.99;100.00
80509;BME280;69838;52.602;13.434;2023-07-29T00:52:49;100370.69;;;13.98;100.00
80509;BME280;69838;52.602;13.434;2023-07-29T00:53:34;100366.81;;;14.02;100.00
80509;BME280;69838;52.602;13.434;2023-07-29T00:54:19;100372.00;;;14.05;100.00
80509;BME280;69838;52.602;13.434;2023-07-29T00:55:05;100368.53;;;14.03;100.00
80509;BME280;69838;52.602;13.434;2023-07-29T00:55:51;100366.56;;;14.05;100.00
80509;BME280;69838;52.602;13.434;2023-07-29T00:56:37;100367.47;;;14.05;100.00
80509;BME280;69838;52.602;13.434;2023-07-29T00:57:23;100357.88;;;14.00;100.00
80509;BME280;69838;52.602;13.434;2023-07-29T00:58:10;100367.09;;;13.97;100.00
80509;BME280;69838;52.602;13.434;2023-07-29T00:58:55;100365.34;;;13.96;100.00
80509;BME280;69838;52.602;13.434;2023-07-29T00:59:45;100366.66;;;13.90;100.00
80509;BME280;69838;52.602;13.434;2023-07-29T01:00:30;100366.75;;;13.89;100.00
80509;BME280;69838;52.602;13.434;2023-07-29T01:01:15;100366.75;;;13.89;100.00
80509;BME280;69838;52.602;13.434;2023-07-29T01:02:00;100369.59;;;13.87;100.00
80509;BME280;69838;52.602;13.434;2023-07-29T01:02:46;100368.59;;;13.88;100.00
80509;BME280;69838;52.602;13.434;2023-07-29T01:03:31;100359.81;;;13.85;100.00
80509;BME280;69838;52.602;13.434;2023-07-29T01:04:16;100367.94;;;13.85;100.00
80509;BME280;69838;52.602;13.434;2023-07-29T01:05:02;100362.72;;;13.82;100.00
80509;BME280;69838;52.602;13.434;2023-07-29T01:06:01;100364.75;;;13.78;100.00
80509;BME280;69838;52.602;13.434;2023-07-29T01:07:09;100365.00;;;13.75;100.00
80509;BME280;69838;52.602;13.434;2023-07-29T01:08:06;100360.53;;;13.74;100.00
80509;BME280;69838;52.602;13.434;2023-07-29T01:09:01;100357.06;;;13.72;100.00
80509;BME280;69838;52.602;13.434;2023-07-29T01:11:03;100357.25;;;13.69;100.00
80509;BME280;69838;52.602;13.434;2023-07-29T01:12:01;100360.88;;;13.69;100.00
80509;BME280;69838;52.602;13.434;2023-07-29T01:14:05;100360.19;;;13.66;100.00
80509;BME280;69838;52.602;13.434;2023-07-29T01:15:16;100353.78;;;13.67;100.00
80509;BME280;69838;52.602;13.434;2023-07-29T01:16:09;100353.03;;;13.65;100.00
80509;BME280;69838;52.602;13.434;2023-07-29T01:17:04;100348.69;;;13.62;100.00
80509;BME280;69838;52.602;13.434;2023-07-29T01:17:55;100349.56;;;13.63;100.00
80509;BME280;69838;52.602;13.434;2023-07-29T01:18:41;100349.75;;;13.60;100.00
80509;BME280;69838;52.602;13.434;2023-07-29T01:20:19;100343.88;;;13.53;100.00
80509;BME280;69838;52.602;13.434;2023-07-29T01:21:08;100340.19;;;13.54;100.00
80509;BME280;69838;52.602;13.434;2023-07-29T01:21:55;100343.88;;;13.53;100.00
80509;BME280;69838;52.602;13.434;2023-07-29T01:22:41;100343.75;;;13.54;100.00
80509;BME280;69838;52.602;13.434;2023-07-29T01:23:35;100344.00;;;13.51;100.00
80509;BME280;69838;52.602;13.434;2023-07-29T01:24:21;100343.88;;;13.53;100.00
80509;BME280;69838;52.602;13.434;2023-07-29T01:25:06;100340.28;;;13.52;100.00
80509;BME280;69838;52.602;13.434;2023-07-29T01:25:51;100337.56;;;13.52;100.00
80509;BME280;69838;52.602;13.434;2023-07-29T01:26:37;100343.88;;;13.53;100.00
80509;BME280;69838;52.602;13.434;2023-07-29T01:27:22;100339.34;;;13.53;100.00
80509;BME280;69838;52.602;13.434;2023-07-29T01:28:07;100327.72;;;13.51;100.00
80509;BME280;69838;52.602;13.434;2023-07-29T01:28:53;100328.69;;;13.50;100.00
80509;BME280;69838;52.602;13.434;2023-07-29T01:29:39;100330.63;;;13.48;100.00
80509;BME280;69838;52.602;13.434;2023-07-29T01:30:30;100328.69;;;13.50;100.00
80509;BME280;69838;52.602;13.434;2023-07-29T01:31:32;100325.00;;;13.51;100.00
80509;BME280;69838;52.602;13.434;2023-07-29T01:32:28;100323.06;;;13.53;100.00
80509;BME280;69838;52.602;13.434;2023-07-29T01:33:20;100333.00;;;13.53;100.00
80509;BME280;69838;52.602;13.434;2023-07-29T01:35:24;100327.91;;;13.48;100.00
80509;BME280;69838;52.602;13.434;2023-07-29T01:36:16;100338.00;;;13.46;100.00
80509;BME280;69838;52.602;13.434;2023-07-29T01:37:05;100331.81;;;13.44;100.00
80509;BME280;69838;52.602;13.434;2023-07-29T01:38:03;100333.63;;;13.44;100.00
80509;BME280;69838;52.602;13.434;2023-07-29T01:38:51;100342.88;;;13.41;100.00
80509;BME280;69838;52.602;13.434;2023-07-29T01:39:37;100334.94;;;13.38;100.00
80509;BME280;69838;52.602;13.434;2023-07-29T01:40:26;100335.13;;;13.35;100.00
80509;BME280;69838;52.602;13.434;2023-07-29T01:41:12;100329.94;;;13.32;100.00
80509;BME280;69838;52.602;13.434;2023-07-29T01:41:58;100339.59;;;13.36;100.00
80509;BME280;69838;52.602;13.434;2023-07-29T01:42:44;100345.00;;;13.36;100.00
80509;BME280;69838;52.602;13.434;2023-07-29T01:43:31;100334.72;;;13.41;100.00
80509;BME280;69838;52.602;13.434;2023-07-29T01:44:17;100337.72;;;13.36;100.00
80509;BME280;69838;52.602;13.434;2023-07-29T01:45:03;100340.53;;;13.35;100.00
80509;BME280;69838;52.602;13.434;2023-07-29T01:45:50;100337.97;;;13.33;100.00
80509;BME280;69838;52.602;13.434;2023-07-29T01:46:36;100339.78;;;13.33;100.00
80509;BME280;69838;52.602;13.434;2023-07-29T01:47:21;100344.34;;;13.32;100.00
80509;BME280;69838;52.602;13.434;2023-07-29T01:48:07;100344.44;;;13.31;100.00
80509;BME280;69838;52.602;13.434;2023-07-29T01:48:53;100338.91;;;13.32;100.00
80509;BME280;69838;52.602;13.434;2023-07-29T01:49:38;100343.25;;;13.35;100.00
80509;BME280;69838;52.602;13.434;2023-07-29T01:50:23;100347.06;;;13.32;100.00
80509;BME280;69838;52.602;13.434;2023-07-29T01:51:11;100339.19;;;13.28;100.00
80509;BME280;69838;52.602;13.434;2023-07-29T01:51:56;100339.19;;;13.28;100.00
80509;BME280;69838;52.602;13.434;2023-07-29T01:52:42;100335.69;;;13.26;100.00
80509;BME280;69838;52.602;13.434;2023-07-29T01:53:27;100344.59;;;13.28;100.00
80509;BME280;69838;52.602;13.434;2023-07-29T01:54:12;100342.88;;;13.27;100.00
80509;BME280;69838;52.602;13.434;2023-07-29T01:54:57;100350.25;;;13.25;100.00
80509;BME280;69838;52.602;13.434;2023-07-29T01:55:43;100342.88;;;13.27;100.00
80509;BME280;69838;52.602;13.434;2023-07-29T01:56:29;100344.59;;;13.28;100.00
80509;BME280;69838;52.602;13.434;2023-07-29T01:57:15;100344.81;;;13.39;100.00
80509;BME280;69838;52.602;13.434;2023-07-29T01:58:00;100347.91;;;13.33;100.00
80509;BME280;69838;52.602;13.434;2023-07-29T01:58:45;100353.53;;;13.30;100.00
80509;BME280;69838;52.602;13.434;2023-07-29T01:59:30;100350.81;;;13.30;100.00
80509;BME280;69838;52.602;13.434;2023-07-29T02:00:16;100348.97;;;13.30;100.00
80509;BME280;69838;52.602;13.434;2023-07-29T02:01:01;100344.50;;;13.29;100.00
80509;BME280;69838;52.602;13.434;2023-07-29T02:01:46;100342.03;;;13.26;100.00
80509;BME280;69838;52.602;13.434;2023-07-29T02:02:31;100355.66;;;13.25;100.00
80509;BME280;69838;52.602;13.434;2023-07-29T02:03:17;100352.19;;;13.23;100.00
80509;BME280;69838;52.602;13.434;2023-07-29T02:04:02;100350.44;;;13.22;100.00
80509;BME280;69838;52.602;13.434;2023-07-29T02:04:47;100351.41;;;13.21;100.00
80509;BME280;69838;52.602;13.434;2023-07-29T02:05:36;100351.31;;;13.22;100.00
80509;BME280;69838;52.602;13.434;2023-07-29T02:06:21;100351.31;;;13.22;100.00
80509;BME280;69838;52.602;13.434;2023-07-29T02:07:07;100342.31;;;13.22;100.00
80509;BME280;69838;52.602;13.434;2023-07-29T02:07:52;100347.63;;;13.23;100.00
80509;BME280;69838;52.602;13.434;2023-07-29T02:08:38;100349.47;;;13.23;100.00
80509;BME280;69838;52.602;13.434;2023-07-29T02:09:25;100346.78;;;13.23;100.00
80509;BME280;69838;52.602;13.434;2023-07-29T02:10:11;100345.03;;;13.22;100.00
80509;BME280;69838;52.602;13.434;2023-07-29T02:10:56;100344.16;;;13.21;100.00
80509;BME280;69838;52.602;13.434;2023-07-29T02:11:41;100334.94;;;13.24;100.00
80509;BME280;69838;52.602;13.434;2023-07-29T02:12:26;100340.16;;;13.27;100.00
80509;BME280;69838;52.602;13.434;2023-07-29T02:13:12;100340.78;;;13.32;100.00
80509;BME280;69838;52.602;13.434;2023-07-29T02:13:57;100336.34;;;13.44;100.00
80509;BME280;69838;52.602;13.434;2023-07-29T02:14:43;100341.06;;;13.54;100.00
80509;BME280;69838;52.602;13.434;2023-07-29T02:15:28;100340.41;;;13.64;100.00
80509;BME280;69838;52.602;13.434;2023-07-29T02:16:13;100341.75;;;13.71;100.00
80509;BME280;69838;52.602;13.434;2023-07-29T02:16:58;100329.94;;;13.72;100.00
80509;BME280;69838;52.602;13.434;2023-07-29T02:17:44;100334.41;;;13.73;100.00
80509;BME280;69838;52.602;13.434;2023-07-29T02:18:29;100336.31;;;13.71;100.00
80509;BME280;69838;52.602;13.434;2023-07-29T02:19:14;100329.28;;;13.68;100.00
80509;BME280;69838;52.602;13.434;2023-07-29T02:20:00;100333.09;;;13.66;100.00
80509;BME280;69838;52.602;13.434;2023-07-29T02:20:45;100343.13;;;13.64;100.00
80509;BME280;69838;52.602;13.434;2023-07-29T02:21:34;100340.31;;;13.65;100.00
80509;BME280;69838;52.602;13.434;2023-07-29T02:22:19;100343.28;;;13.75;100.00
80509;BME280;69838;52.602;13.434;2023-07-29T02:23:04;100343.28;;;13.75;100.00
80509;BME280;69838;52.602;13.434;2023-07-29T02:23:50;100341.34;;;13.77;100.00
80509;BME280;69838;52.602;13.434;2023-07-29T02:24:35;100341.53;;;13.74;100.00
80509;BME280;69838;52.602;13.434;2023-07-29T02:25:20;100339.94;;;13.71;100.00
80509;BME280;69838;52.602;13.434;2023-07-29T02:26:05;100340.22;;;13.67;100.00
80509;BME280;69838;52.602;13.434;2023-07-29T02:26:51;100341.63;;;13.60;100.00
80509;BME280;69838;52.602;13.434;2023-07-29T02:27:36;100344.75;;;13.53;100.00
80509;BME280;69838;52.602;13.434;2023-07-29T02:28:21;100344.09;;;13.50;100.00
80509;BME280;69838;52.602;13.434;2023-07-29T02:29:06;100347.09;;;13.45;100.00
80509;BME280;69838;52.602;13.434;2023-07-29T02:29:52;100342.00;;;13.41;100.00
80509;BME280;69838;52.602;13.434;2023-07-29T02:30:41;100345.97;;;13.35;100.00
80509;BME280;69838;52.602;13.434;2023-07-29T02:31:26;100351.63;;;13.32;100.00
80509;BME280;69838;52.602;13.434;2023-07-29T02:32:12;100352.72;;;13.28;100.00
80509;BME280;69838;52.602;13.434;2023-07-29T02:32:57;100361.84;;;13.27;100.00
80509;BME280;69838;52.602;13.434;2023-07-29T02:33:43;100355.66;;;13.25;100.00
80509;BME280;69838;52.602;13.434;2023-07-29T02:34:29;100357.72;;;13.21;100.00
80509;BME280;69838;52.602;13.434;2023-07-29T02:35:15;100354.09;;;13.21;100.00
80509;BME280;69838;52.602;13.434;2023-07-29T02:36:00;100359.00;;;13.15;100.00
80509;BME280;69838;52.602;13.434;2023-07-29T02:36:45;100363.41;;;13.16;100.00
80509;BME280;69838;52.602;13.434;2023-07-29T02:37:30;100357.13;;;13.16;100.00
80509;BME280;69838;52.602;13.434;2023-07-29T02:38:16;100359.94;;;13.14;100.00
80509;BME280;69838;52.602;13.434;2023-07-29T02:39:01;100357.22;;;13.14;100.00
80509;BME280;69838;52.602;13.434;2023-07-29T02:39:46;100355.19;;;13.18;100.00
80509;BME280;69838;52.602;13.434;2023-07-29T02:40:31;100353.25;;;13.20;100.00
80509;BME280;69838;52.602;13.434;2023-07-29T02:41:17;100355.84;;;13.22;100.00
80509;BME280;69838;52.602;13.434;2023-07-29T02:42:02;100359.34;;;13.24;100.00
80509;BME280;69838;52.602;13.434;2023-07-29T02:42:48;100359.25;;;13.25;100.00
80509;BME280;69838;52.602;13.434;2023-07-29T02:43:33;100358.28;;;13.26;100.00
80509;BME280;69838;52.602;13.434;2023-07-29T02:44:18;100353.72;;;13.27;100.00
80509;BME280;69838;52.602;13.434;2023-07-29T02:45:05;100356.44;;;13.27;100.00
80509;BME280;69838;52.602;13.434;2023-07-29T02:45:54;100353.34;;;13.33;100.00
80509;BME280;69838;52.602;13.434;2023-07-29T02:46:39;100355.75;;;13.38;100.00
80509;BME280;69838;52.602;13.434;2023-07-29T02:47:25;100349.25;;;13.40;100.00
80509;BME280;69838;52.602;13.434;2023-07-29T02:48:10;100358.28;;;13.41;100.00
80509;BME280;69838;52.602;13.434;2023-07-29T02:48:55;100351.94;;;13.40;100.00
80509;BME280;69838;52.602;13.434;2023-07-29T02:49:40;100351.94;;;13.40;100.00
80509;BME280;69838;52.602;13.434;2023-07-29T02:50:26;100351.75;;;13.43;100.00
80509;BME280;69838;52.602;13.434;2023-07-29T02:51:11;100344.59;;;13.42;100.00
80509;BME280;69838;52.602;13.434;2023-07-29T02:51:56;100350.00;;;13.42;100.00
80509;BME280;69838;52.602;13.434;2023-07-29T02:52:42;100347.28;;;13.42;100.00
80509;BME280;69838;52.602;13.434;2023-07-29T02:53:27;100344.59;;;13.42;100.00
80509;BME280;69838;52.602;13.434;2023-07-29T02:54:12;100345.38;;;13.44;100.00
80509;BME280;69838;52.602;13.434;2023-07-29T02:54:57;100344.09;;;13.50;100.00
80509;BME280;69838;52.602;13.434;2023-07-29T02:55:42;100351.03;;;13.54;100.00
80509;BME280;69838;52.602;13.434;2023-07-29T02:56:28;100343.56;;;13.58;100.00
80509;BME280;69838;52.602;13.434;2023-07-29T02:57:13;100339.91;;;13.59;100.00
80509;BME280;69838;52.602;13.434;2023-07-29T02:57:58;100337.19;;;13.59;100.00
80509;BME280;69838;52.602;13.434;2023-07-29T02:58:44;100335.53;;;13.56;100.00
80509;BME280;69838;52.602;13.434;2023-07-29T02:59:29;100342.81;;;13.55;100.00
80509;BME280;69838;52.602;13.434;2023-07-29T03:00:15;100344.00;;;13.51;100.00
80509;BME280;69838;52.602;13.434;2023-07-29T03:01:01;100337.00;;;13.47;100.00
80509;BME280;69838;52.602;13.434;2023-07-29T03:01:47;100334.31;;;13.47;100.00
80509;BME280;69838;52.602;13.434;2023-07-29T03:02:32;100341.78;;;13.44;100.00
80509;BME280;69838;52.602;13.434;2023-07-29T03:03:17;100336.69;;;13.39;100.00
80509;BME280;69838;52.602;13.434;2023-07-29T03:04:04;100333.19;;;13.37;100.00
80509;BME280;69838;52.602;13.434;2023-07-29T03:04:49;100342.28;;;13.36;100.00
80509;BME280;69838;52.602;13.434;2023-07-29T03:05:35;100343.06;;;13.38;100.00
80509;BME280;69838;52.602;13.434;2023-07-29T03:06:20;100335.91;;;13.37;100.00
80509;BME280;69838;52.602;13.434;2023-07-29T03:07:05;100344.03;;;13.37;100.00
80509;BME280;69838;52.602;13.434;2023-07-29T03:07:51;100336.69;;;13.39;100.00
80509;BME280;69838;52.602;13.434;2023-07-29T03:08:36;100341.88;;;13.42;100.00
80509;BME280;69838;52.602;13.434;2023-07-29T03:09:21;100340.91;;;13.43;100.00
80509;BME280;69838;52.602;13.434;2023-07-29T03:10:07;100332.78;;;13.43;100.00
80509;BME280;69838;52.602;13.434;2023-07-29T03:10:52;100343.81;;;13.40;100.00
80509;BME280;69838;52.602;13.434;2023-07-29T03:11:37;100338.63;;;13.37;100.00
80509;BME280;69838;52.602;13.434;2023-07-29T03:12:23;100338.81;;;13.34;100.00
80509;BME280;69838;52.602;13.434;2023-07-29T03:13:08;100341.72;;;13.31;100.00
80509;BME280;69838;52.602;13.434;2023-07-29T03:13:53;100336.31;;;13.31;100.00
80509;BME280;69838;52.602;13.434;2023-07-29T03:14:38;100339.19;;;13.28;100.00
80509;BME280;69838;52.602;13.434;2023-07-29T03:15:24;100334.75;;;13.27;100.00
80509;BME280;69838;52.602;13.434;2023-07-29T03:16:12;100337.47;;;13.27;100.00
80509;BME280;69838;52.602;13.434;2023-07-29T03:17:02;100336.69;;;13.25;100.00
80509;BME280;69838;52.602;13.434;2023-07-29T03:17:47;100334.94;;;13.24;100.00
80509;BME280;69838;52.602;13.434;2023-07-29T03:18:33;100340.25;;;13.25;100.00
80509;BME280;69838;52.602;13.434;2023-07-29T03:19:18;100338.31;;;13.27;100.00
80509;BME280;69838;52.602;13.434;2023-07-29T03:20:04;100345.69;;;13.25;100.00
80509;BME280;69838;52.602;13.434;2023-07-29T03:20:49;100341.88;;;13.28;100.00
80509;BME280;69838;52.602;13.434;2023-07-29T03:21:35;100344.44;;;13.31;100.00
80509;BME280;69838;52.602;13.434;2023-07-29T03:22:20;100346.19;;;13.32;100.00
80509;BME280;69838;52.602;13.434;2023-07-29T03:23:05;100343.38;;;13.33;100.00
80509;BME280;69838;52.602;13.434;2023-07-29T03:23:51;100356.03;;;13.33;100.00
80509;BME280;69838;52.602;13.434;2023-07-29T03:24:36;100351.63;;;13.32;100.00
80509;BME280;69838;52.602;13.434;2023-07-29T03:25:22;100349.06;;;13.29;100.00
80509;BME280;69838;52.602;13.434;2023-07-29T03:26:08;100349.84;;;13.31;100.00
80509;BME280;69838;52.602;13.434;2023-07-29T03:26:56;100335.78;;;13.39;100.00
80509;BME280;69838;52.602;13.434;2023-07-29T03:27:41;100338.41;;;13.40;100.00
80509;BME280;69838;52.602;13.434;2023-07-29T03:28:29;100342.09;;;13.39;100.00
80509;BME280;69838;52.602;13.434;2023-07-29T03:29:14;100327.97;;;13.34;100.00
80509;BME280;69838;52.602;13.434;2023-07-29T03:29:59;100336.22;;;13.32;100.00
80509;BME280;69838;52.602;13.434;2023-07-29T03:30:45;100343.47;;;13.32;100.00
80509;BME280;69838;52.602;13.434;2023-07-29T03:31:30;100339.00;;;13.31;100.00
80509;BME280;69838;52.602;13.434;2023-07-29T03:32:15;100344.25;;;13.34;100.00
80509;BME280;69838;52.602;13.434;2023-07-29T03:33:00;100337.34;;;13.43;100.00
80509;BME280;69838;52.602;13.434;2023-07-29T03:33:46;100336.06;;;13.48;100.00
80509;BME280;69838;52.602;13.434;2023-07-29T03:34:31;100335.84;;;13.51;100.00
80509;BME280;69838;52.602;13.434;2023-07-29T03:35:17;100333.91;;;13.53;100.00
80509;BME280;69838;52.602;13.434;2023-07-29T03:36:02;100332.16;;;13.52;100.00
80509;BME280;69838;52.602;13.434;2023-07-29T03:36:47;100336.81;;;13.50;100.00
80509;BME280;69838;52.602;13.434;2023-07-29T03:37:33;100334.31;;;13.47;100.00
80509;BME280;69838;52.602;13.434;2023-07-29T03:38:18;100331.91;;;13.43;100.00
80509;BME280;69838;52.602;13.434;2023-07-29T03:39:03;100328.66;;;13.38;100.00
80509;BME280;69838;52.602;13.434;2023-07-29T03:39:48;100335.13;;;13.35;100.00
80509;BME280;69838;52.602;13.434;2023-07-29T03:40:34;100328.16;;;13.31;100.00
80509;BME280;69838;52.602;13.434;2023-07-29T03:41:19;100331.19;;;13.26;100.00
80509;BME280;69838;52.602;13.434;2023-07-29T03:42:04;100333.75;;;13.28;100.00
80509;BME280;69838;52.602;13.434;2023-07-29T03:42:50;100332.81;;;13.29;100.00
80509;BME280;69838;52.602;13.434;2023-07-29T03:43:35;100330.94;;;13.29;100.00
80509;BME280;69838;52.602;13.434;2023-07-29T03:44:20;100333.41;;;13.34;100.00
80509;BME280;69838;52.602;13.434;2023-07-29T03:45:06;100332.31;;;13.36;100.00
80509;BME280;69838;52.602;13.434;2023-07-29T03:45:51;100338.41;;;13.40;100.00
80509;BME280;69838;52.602;13.434;2023-07-29T03:46:36;100322.13;;;13.40;100.00
80509;BME280;69838;52.602;13.434;2023-07-29T03:47:22;100323.13;;;13.39;100.00
80509;BME280;69838;52.602;13.434;2023-07-29T03:48:07;100332.97;;;13.40;100.00
80509;BME280;69838;52.602;13.434;2023-07-29T03:48:52;100326.06;;;13.49;100.00
80509;BME280;69838;52.602;13.434;2023-07-29T03:49:38;100324.59;;;13.58;100.00
80509;BME280;69838;52.602;13.434;2023-07-29T03:50:23;100323.75;;;13.70;100.00
80509;BME280;69838;52.602;13.434;2023-07-29T03:51:09;100328.53;;;13.79;100.00
80509;BME280;69838;52.602;13.434;2023-07-29T03:51:54;100325.09;;;13.90;100.00
80509;BME280;69838;52.602;13.434;2023-07-29T03:52:39;100321.81;;;13.98;100.00
80509;BME280;69838;52.602;13.434;2023-07-29T03:53:25;100330.53;;;14.03;100.00
80509;BME280;69838;52.602;13.434;2023-07-29T03:54:10;100326.66;;;14.07;100.00
80509;BME280;69838;52.602;13.434;2023-07-29T03:54:55;100326.00;;;14.16;100.00
80509;BME280;69838;52.602;13.434;2023-07-29T03:55:41;100317.75;;;14.18;100.00
80509;BME280;69838;52.602;13.434;2023-07-29T03:56:26;100320.88;;;14.24;100.00
80509;BME280;69838;52.602;13.434;2023-07-29T03:57:11;100318.72;;;14.29;100.00
80509;BME280;69838;52.602;13.434;2023-07-29T03:58:00;100319.25;;;14.35;100.00
80509;BME280;69838;52.602;13.434;2023-07-29T03:58:46;100323.59;;;14.37;100.00
80509;BME280;69838;52.602;13.434;2023-07-29T03:59:33;100325.22;;;14.40;100.00
80509;BME280;69838;52.602;13.434;2023-07-29T04:00:18;100326.19;;;14.39;100.00